sensor_id;sensor_type;location;lat;lon;timestamp;pressure;altitude;pressure_sealevel;temperature;humidity
84055;BME280;74141;51.504;7.122;2024-03-08T00:00:18;101218.13;;;2.96;77.94
84055;BME280;74141;51.504;7.122;2024-03-08T00:02:47;101206.84;;;2.88;78.38
84055;BME280;74141;51.504;7.122;2024-03-08T00:05:13;101199.91;;;2.94;78.42
84055;BME280;74141;51.504;7.122;2024-03-08T00:07:39;101189.50;;;2.87;78.17
84055;BME280;74141;51.504;7.122;2024-03-08T00:10:08;101201.63;;;2.83;78.35
84055;BME280;74141;51.504;7.122;2024-03-08T00:12:38;101193.84;;;2.77;78.13
84055;BME280;74141;51.504;7.122;2024-03-08T00:15:03;101198.16;;;2.83;78.56
84055;BME280;74141;51.504;7.122;2024-03-08T00:17:29;101191.22;;;2.67;78.65
84055;BME280;74141;51.504;7.122;2024-03-08T00:19:54;101195.59;;;2.68;79.07
84055;BME280;74141;51.504;7.122;2024-03-08T00:22:20;101194.72;;;2.78;78.60
84055;BME280;74141;51.504;7.122;2024-03-08T00:24:47;101190.38;;;2.59;79.11
84055;BME280;74141;51.504;7.122;2024-03-08T00:27:12;101186.03;;;2.67;78.99
84055;BME280;74141;51.504;7.122;2024-03-08T00:29:37;101180.84;;;2.62;78.98
84055;BME280;74141;51.504;7.122;2024-03-08T00:32:04;101183.44;;;2.52;79.90
84055;BME280;74141;51.504;7.122;2024-03-08T00:34:29;101184.31;;;2.60;78.97
84055;BME280;74141;51.504;7.122;2024-03-08T00:36:54;101186.91;;;2.54;79.74
84055;BME280;74141;51.504;7.122;2024-03-08T00:39:20;101192.09;;;2.51;79.60
84055;BME280;74141;51.504;7.122;2024-03-08T00:41:46;101186.91;;;2.43;80.36
84055;BME280;74141;51.504;7.122;2024-03-08T00:44:11;101184.28;;;2.45;80.10
84055;BME280;74141;51.504;7.122;2024-03-08T00:46:36;101187.78;;;2.44;80.07
84055;BME280;74141;51.504;7.122;2024-03-08T00:49:03;101185.16;;;2.35;80.85
84055;BME280;74141;51.504;7.122;2024-03-08T00:51:28;101176.50;;;2.39;80.94
84055;BME280;74141;51.504;7.122;2024-03-08T00:53:54;101177.38;;;2.42;80.77
84055;BME280;74141;51.504;7.122;2024-03-08T00:56:19;101175.66;;;2.41;80.38
84055;BME280;74141;51.504;7.122;2024-03-08T00:58:44;101170.44;;;2.31;80.61
84055;BME280;74141;51.504;7.122;2024-03-08T01:01:10;101164.34;;;2.26;80.91
84055;BME280;74141;51.504;7.122;2024-03-08T01:03:36;101173.03;;;2.40;80.55
84055;BME280;74141;51.504;7.122;2024-03-08T01:06:01;101172.16;;;2.32;80.94
84055;BME280;74141;51.504;7.122;2024-03-08T01:08:27;101160.84;;;2.13;81.58
84055;BME280;74141;51.504;7.122;2024-03-08T01:10:53;101163.47;;;2.05;81.96
84055;BME280;74141;51.504;7.122;2024-03-08T01:13:18;101157.38;;;2.03;81.71
84055;BME280;74141;51.504;7.122;2024-03-08T01:15:44;101150.47;;;2.05;81.33
84055;BME280;74141;51.504;7.122;2024-03-08T01:18:10;101141.81;;;2.16;80.94
84055;BME280;74141;51.504;7.122;2024-03-08T01:20:35;101147.88;;;2.17;81.38
84055;BME280;74141;51.504;7.122;2024-03-08T01:23:01;101141.78;;;1.97;81.61
84055;BME280;74141;51.504;7.122;2024-03-08T01:25:26;101142.69;;;2.05;81.77
84055;BME280;74141;51.504;7.122;2024-03-08T01:27:52;101134.00;;;2.00;81.88
84055;BME280;74141;51.504;7.122;2024-03-08T01:30:19;101133.13;;;2.04;81.70
84055;BME280;74141;51.504;7.122;2024-03-08T01:32:45;101133.09;;;1.94;82.03
84055;BME280;74141;51.504;7.122;2024-03-08T01:35:10;101128.81;;;1.97;81.39
84055;BME280;74141;51.504;7.122;2024-03-08T01:37:36;101123.63;;;2.02;81.50
84055;BME280;74141;51.504;7.122;2024-03-08T01:40:01;101123.59;;;1.99;81.03
84055;BME280;74141;51.504;7.122;2024-03-08T01:42:28;101114.09;;;1.96;80.89
84055;BME280;74141;51.504;7.122;2024-03-08T01:44:53;101120.13;;;2.04;80.98
84055;BME280;74141;51.504;7.122;2024-03-08T01:47:18;101117.53;;;1.92;81.14
84055;BME280;74141;51.504;7.122;2024-03-08T01:49:45;101114.06;;;1.90;81.55
84055;BME280;74141;51.504;7.122;2024-03-08T01:52:10;101105.41;;;1.97;80.80
84055;BME280;74141;51.504;7.122;2024-03-08T01:54:36;101096.75;;;2.01;80.31
84055;BME280;74141;51.504;7.122;2024-03-08T01:57:02;101097.63;;;2.05;80.30
84055;BME280;74141;51.504;7.122;2024-03-08T01:59:27;101092.44;;;2.13;79.22
84055;BME280;74141;51.504;7.122;2024-03-08T02:02:00;101091.56;;;2.07;79.86
84055;BME280;74141;51.504;7.122;2024-03-08T02:04:27;101095.03;;;2.06;79.65
84055;BME280;74141;51.504;7.122;2024-03-08T02:06:52;101085.53;;;2.02;79.73
84055;BME280;74141;51.504;7.122;2024-03-08T02:09:17;101097.63;;;1.91;80.71
84055;BME280;74141;51.504;7.122;2024-03-08T02:11:42;101091.53;;;1.92;80.52
84055;BME280;74141;51.504;7.122;2024-03-08T02:14:14;101087.19;;;1.78;80.98
84055;BME280;74141;51.504;7.122;2024-03-08T02:16:39;101086.34;;;1.71;80.98
84055;BME280;74141;51.504;7.122;2024-03-08T02:19:14;101090.69;;;1.80;80.79
84055;BME280;74141;51.504;7.122;2024-03-08T02:21:39;101075.09;;;1.80;81.21
84055;BME280;74141;51.504;7.122;2024-03-08T02:24:14;101086.34;;;1.74;81.22
84055;BME280;74141;51.504;7.122;2024-03-08T02:26:39;101081.97;;;1.69;81.73
84055;BME280;74141;51.504;7.122;2024-03-08T02:29:14;101075.09;;;1.75;81.15
84055;BME280;74141;51.504;7.122;2024-03-08T02:31:39;101075.97;;;1.94;80.27
84055;BME280;74141;51.504;7.122;2024-03-08T02:34:14;101072.50;;;1.78;81.61
84055;BME280;74141;51.504;7.122;2024-03-08T02:36:39;101072.47;;;1.69;81.70
84055;BME280;74141;51.504;7.122;2024-03-08T02:39:13;101069.81;;;1.50;82.50
84055;BME280;74141;51.504;7.122;2024-03-08T02:41:39;101065.47;;;1.35;83.01
84055;BME280;74141;51.504;7.122;2024-03-08T02:44:13;101060.31;;;1.50;82.59
84055;BME280;74141;51.504;7.122;2024-03-08T02:46:40;101066.31;;;1.25;83.30
84055;BME280;74141;51.504;7.122;2024-03-08T02:49:14;101060.19;;;1.13;84.54
84055;BME280;74141;51.504;7.122;2024-03-08T02:51:39;101053.25;;;1.07;84.38
84055;BME280;74141;51.504;7.122;2024-03-08T02:54:11;101056.72;;;1.06;84.58
84055;BME280;74141;51.504;7.122;2024-03-08T02:56:37;101049.72;;;0.93;85.03
84055;BME280;74141;51.504;7.122;2024-03-08T02:59:14;101054.91;;;0.93;85.26
84055;BME280;74141;51.504;7.122;2024-03-08T03:01:43;101051.44;;;0.87;85.32
84055;BME280;74141;51.504;7.122;2024-03-08T03:04:08;101030.56;;;0.64;86.11
84055;BME280;74141;51.504;7.122;2024-03-08T03:06:33;101046.22;;;0.84;86.00
84055;BME280;74141;51.504;7.122;2024-03-08T03:08:59;101045.44;;;1.00;85.57
84055;BME280;74141;51.504;7.122;2024-03-08T03:11:24;101040.19;;;0.85;85.45
84055;BME280;74141;51.504;7.122;2024-03-08T03:13:49;101036.75;;;0.86;85.95
84055;BME280;74141;51.504;7.122;2024-03-08T03:16:18;101029.00;;;0.99;85.39
84055;BME280;74141;51.504;7.122;2024-03-08T03:18:47;101027.19;;;0.83;85.95
84055;BME280;74141;51.504;7.122;2024-03-08T03:21:13;101024.63;;;0.85;86.42
84055;BME280;74141;51.504;7.122;2024-03-08T03:23:39;101028.81;;;0.60;86.59
84055;BME280;74141;51.504;7.122;2024-03-08T03:26:08;101027.16;;;0.77;86.96
84055;BME280;74141;51.504;7.122;2024-03-08T03:28:33;101030.59;;;0.67;87.07
84055;BME280;74141;51.504;7.122;2024-03-08T03:30:59;101028.00;;;0.70;87.35
84055;BME280;74141;51.504;7.122;2024-03-08T03:33:25;101021.00;;;0.51;87.30
84055;BME280;74141;51.504;7.122;2024-03-08T03:35:50;101020.06;;;0.43;88.03
84055;BME280;74141;51.504;7.122;2024-03-08T03:38:17;101010.59;;;0.47;87.95
84055;BME280;74141;51.504;7.122;2024-03-08T03:40:42;101010.56;;;0.42;88.44
84055;BME280;74141;51.504;7.122;2024-03-08T03:43:10;101006.25;;;0.41;88.21
84055;BME280;74141;51.504;7.122;2024-03-08T03:45:36;101009.78;;;0.57;87.69
84055;BME280;74141;51.504;7.122;2024-03-08T03:48:05;101001.94;;;0.46;88.26
84055;BME280;74141;51.504;7.122;2024-03-08T03:50:36;101008.84;;;0.43;88.60
84055;BME280;74141;51.504;7.122;2024-03-08T03:53:02;101004.47;;;0.36;88.87
84055;BME280;74141;51.504;7.122;2024-03-08T03:55:28;100998.47;;;0.38;88.92
84055;BME280;74141;51.504;7.122;2024-03-08T03:57:54;101001.88;;;0.33;88.89
84055;BME280;74141;51.504;7.122;2024-03-08T04:00:19;101001.06;;;0.38;88.94
84055;BME280;74141;51.504;7.122;2024-03-08T04:02:45;101002.72;;;0.30;89.44
84055;BME280;74141;51.504;7.122;2024-03-08T04:05:11;101002.56;;;0.09;90.00
84055;BME280;74141;51.504;7.122;2024-03-08T04:07:38;101000.84;;;0.08;90.29
84055;BME280;74141;51.504;7.122;2024-03-08T04:10:04;100996.47;;;-0.02;90.79
84055;BME280;74141;51.504;7.122;2024-03-08T04:12:31;100999.97;;;0.09;90.36
84055;BME280;74141;51.504;7.122;2024-03-08T04:14:57;100999.94;;;0.00;90.89
84055;BME280;74141;51.504;7.122;2024-03-08T04:17:22;100988.00;;;0.22;90.55
84055;BME280;74141;51.504;7.122;2024-03-08T04:19:49;100992.28;;;0.18;90.00
84055;BME280;74141;51.504;7.122;2024-03-08T04:22:14;100956.84;;;0.13;90.15
84055;BME280;74141;51.504;7.122;2024-03-08T04:24:40;100992.34;;;0.27;89.69
84055;BME280;74141;51.504;7.122;2024-03-08T04:27:06;100990.66;;;0.31;89.20
84055;BME280;74141;51.504;7.122;2024-03-08T04:29:31;100985.41;;;0.20;90.00
84055;BME280;74141;51.504;7.122;2024-03-08T04:31:58;100987.03;;;0.08;90.38
84055;BME280;74141;51.504;7.122;2024-03-08T04:34:23;100985.41;;;0.20;90.06
84055;BME280;74141;51.504;7.122;2024-03-08T04:36:49;100992.31;;;0.23;90.07
84055;BME280;74141;51.504;7.122;2024-03-08T04:39:14;100988.88;;;0.21;90.00
84055;BME280;74141;51.504;7.122;2024-03-08T04:41:41;100973.09;;;-0.10;90.63
84055;BME280;74141;51.504;7.122;2024-03-08T04:44:08;100985.34;;;0.13;90.39
84055;BME280;74141;51.504;7.122;2024-03-08T04:46:34;100983.63;;;0.12;90.20
84055;BME280;74141;51.504;7.122;2024-03-08T04:49:00;100974.19;;;0.27;90.11
84055;BME280;74141;51.504;7.122;2024-03-08T04:51:26;100967.25;;;0.17;90.30
84055;BME280;74141;51.504;7.122;2024-03-08T04:53:51;100968.91;;;0.09;90.01
84055;BME280;74141;51.504;7.122;2024-03-08T04:56:16;100965.53;;;0.18;90.46
84055;BME280;74141;51.504;7.122;2024-03-08T04:58:44;100967.13;;;0.02;90.72
84055;BME280;74141;51.504;7.122;2024-03-08T05:01:12;100972.38;;;0.10;90.52
84055;BME280;74141;51.504;7.122;2024-03-08T05:03:37;100965.41;;;0.01;90.99
84055;BME280;74141;51.504;7.122;2024-03-08T05:06:03;100971.47;;;0.06;90.88
84055;BME280;74141;51.504;7.122;2024-03-08T05:08:29;100966.31;;;0.09;90.59
84055;BME280;74141;51.504;7.122;2024-03-08T05:10:54;100961.13;;;0.09;90.21
84055;BME280;74141;51.504;7.122;2024-03-08T05:13:20;100960.19;;;-0.05;91.20
84055;BME280;74141;51.504;7.122;2024-03-08T05:15:48;100959.22;;;-0.16;91.46
84055;BME280;74141;51.504;7.122;2024-03-08T05:18:14;100955.72;;;-0.27;91.96
84055;BME280;74141;51.504;7.122;2024-03-08T05:20:40;100957.56;;;-0.11;92.00
84055;BME280;74141;51.504;7.122;2024-03-08T05:23:06;100961.91;;;-0.06;91.44
84055;BME280;74141;51.504;7.122;2024-03-08T05:25:31;100956.72;;;-0.04;91.25
84055;BME280;74141;51.504;7.122;2024-03-08T05:27:57;100958.41;;;-0.14;91.94
84055;BME280;74141;51.504;7.122;2024-03-08T05:30:23;100947.22;;;-0.08;91.76
84055;BME280;74141;51.504;7.122;2024-03-08T05:32:48;100947.25;;;-0.05;91.44
84055;BME280;74141;51.504;7.122;2024-03-08T05:35:13;100954.16;;;-0.04;91.39
84055;BME280;74141;51.504;7.122;2024-03-08T05:37:41;100950.66;;;-0.12;91.10
84055;BME280;74141;51.504;7.122;2024-03-08T05:40:07;100950.69;;;-0.09;91.31
84055;BME280;74141;51.504;7.122;2024-03-08T05:42:37;100955.69;;;-0.29;92.17
84055;BME280;74141;51.504;7.122;2024-03-08T05:45:04;100941.91;;;-0.28;92.20
84055;BME280;74141;51.504;7.122;2024-03-08T05:47:29;100944.47;;;-0.28;92.05
84055;BME280;74141;51.504;7.122;2024-03-08T05:49:54;100946.28;;;-0.18;91.98
84055;BME280;74141;51.504;7.122;2024-03-08T05:52:20;100944.72;;;0.03;91.51
84055;BME280;74141;51.504;7.122;2024-03-08T05:54:45;100939.50;;;-0.01;91.40
84055;BME280;74141;51.504;7.122;2024-03-08T05:57:12;100943.81;;;-0.01;91.92
84055;BME280;74141;51.504;7.122;2024-03-08T05:59:38;100943.75;;;-0.07;91.70
84055;BME280;74141;51.504;7.122;2024-03-08T06:02:03;100936.88;;;-0.08;91.35
84055;BME280;74141;51.504;7.122;2024-03-08T06:04:28;100942.81;;;-0.21;91.69
84055;BME280;74141;51.504;7.122;2024-03-08T06:06:54;100939.38;;;-0.17;91.95
84055;BME280;74141;51.504;7.122;2024-03-08T06:09:22;100929.84;;;-0.24;92.18
84055;BME280;74141;51.504;7.122;2024-03-08T06:11:48;100935.06;;;-0.21;92.60
84055;BME280;74141;51.504;7.122;2024-03-08T06:14:14;100935.09;;;-0.17;92.26
84055;BME280;74141;51.504;7.122;2024-03-08T06:16:44;100936.00;;;-0.07;91.49
84055;BME280;74141;51.504;7.122;2024-03-08T06:19:09;100936.00;;;-0.09;91.25
84055;BME280;74141;51.504;7.122;2024-03-08T06:21:35;100938.56;;;-0.10;91.92
84055;BME280;74141;51.504;7.122;2024-03-08T06:24:00;100928.28;;;0.02;91.39
84055;BME280;74141;51.504;7.122;2024-03-08T06:26:25;100932.59;;;0.03;91.47
84055;BME280;74141;51.504;7.122;2024-03-08T06:28:53;100925.78;;;0.13;91.49
84055;BME280;74141;51.504;7.122;2024-03-08T06:31:19;100928.44;;;0.23;90.32
84055;BME280;74141;51.504;7.122;2024-03-08T06:33:45;100926.72;;;0.25;90.31
84055;BME280;74141;51.504;7.122;2024-03-08T06:36:10;100931.94;;;0.37;90.46
84055;BME280;74141;51.504;7.122;2024-03-08T06:38:37;100931.97;;;0.43;89.94
84055;BME280;74141;51.504;7.122;2024-03-08T06:41:07;100929.41;;;0.52;89.33
84055;BME280;74141;51.504;7.122;2024-03-08T06:43:32;100931.22;;;0.70;89.25
84055;BME280;74141;51.504;7.122;2024-03-08T06:45:59;100932.16;;;0.85;88.33
84055;BME280;74141;51.504;7.122;2024-03-08T06:48:24;100933.94;;;1.09;87.40
84055;BME280;74141;51.504;7.122;2024-03-08T06:50:50;100930.53;;;1.47;86.44
84055;BME280;74141;51.504;7.122;2024-03-08T06:53:15;100931.34;;;2.00;84.47
84055;BME280;74141;51.504;7.122;2024-03-08T06:55:42;100927.78;;;2.48;82.12
84055;BME280;74141;51.504;7.122;2024-03-08T06:58:09;100928.47;;;2.82;80.94
84055;BME280;74141;51.504;7.122;2024-03-08T07:00:36;100933.66;;;2.86;80.41
84055;BME280;74141;51.504;7.122;2024-03-08T07:03:01;100919.72;;;2.95;80.44
84055;BME280;74141;51.504;7.122;2024-03-08T07:05:27;100926.50;;;3.20;80.37
84055;BME280;74141;51.504;7.122;2024-03-08T07:07:53;100926.47;;;3.26;79.99
84055;BME280;74141;51.504;7.122;2024-03-08T07:10:22;100923.56;;;3.68;77.54
84055;BME280;74141;51.504;7.122;2024-03-08T07:12:51;100925.22;;;3.78;76.93
84055;BME280;74141;51.504;7.122;2024-03-08T07:15:18;100930.41;;;3.81;76.01
84055;BME280;74141;51.504;7.122;2024-03-08T07:17:47;100930.94;;;4.14;76.30
84055;BME280;74141;51.504;7.122;2024-03-08T07:20:13;100927.72;;;3.90;75.00
84055;BME280;74141;51.504;7.122;2024-03-08T07:22:40;100926.75;;;3.98;74.94
84055;BME280;74141;51.504;7.122;2024-03-08T07:25:06;100924.88;;;4.14;74.13
84055;BME280;74141;51.504;7.122;2024-03-08T07:27:53;100937.47;;;4.53;72.31
84055;BME280;74141;51.504;7.122;2024-03-08T07:30:23;100929.28;;;4.82;71.80
84055;BME280;74141;51.504;7.122;2024-03-08T07:33:07;100931.69;;;4.97;70.36
84055;BME280;74141;51.504;7.122;2024-03-08T07:35:33;100923.66;;;5.13;69.57
84055;BME280;74141;51.504;7.122;2024-03-08T07:38:02;100915.81;;;5.68;67.97
84055;BME280;74141;51.504;7.122;2024-03-08T07:40:27;100918.06;;;5.90;67.15
84055;BME280;74141;51.504;7.122;2024-03-08T07:42:53;100917.69;;;5.60;67.80
84055;BME280;74141;51.504;7.122;2024-03-08T07:45:18;100918.19;;;6.32;65.89
84055;BME280;74141;51.504;7.122;2024-03-08T07:47:43;100912.75;;;6.41;65.49
84055;BME280;74141;51.504;7.122;2024-03-08T07:50:09;100908.31;;;6.46;64.50
84055;BME280;74141;51.504;7.122;2024-03-08T07:52:35;100910.75;;;6.09;65.61
84055;BME280;74141;51.504;7.122;2024-03-08T07:55:01;100910.00;;;6.47;65.07
84055;BME280;74141;51.504;7.122;2024-03-08T07:57:27;100907.53;;;6.83;62.85
84055;BME280;74141;51.504;7.122;2024-03-08T07:59:52;100905.22;;;7.08;62.87
84055;BME280;74141;51.504;7.122;2024-03-08T08:02:17;100892.31;;;6.99;61.81
84055;BME280;74141;51.504;7.122;2024-03-08T08:04:43;100888.44;;;7.16;61.84
84055;BME280;74141;51.504;7.122;2024-03-08T08:07:10;100888.16;;;7.28;61.41
84055;BME280;74141;51.504;7.122;2024-03-08T08:09:35;100883.38;;;7.45;59.77
84055;BME280;74141;51.504;7.122;2024-03-08T08:12:00;100882.91;;;7.63;59.75
84055;BME280;74141;51.504;7.122;2024-03-08T08:14:29;100884.91;;;7.87;59.44
84055;BME280;74141;51.504;7.122;2024-03-08T08:16:54;100882.22;;;7.22;60.63
84055;BME280;74141;51.504;7.122;2024-03-08T08:19:22;100879.13;;;7.40;60.32
84055;BME280;74141;51.504;7.122;2024-03-08T08:21:47;100869.84;;;7.27;60.28
84055;BME280;74141;51.504;7.122;2024-03-08T08:24:12;100871.31;;;7.02;61.76
84055;BME280;74141;51.504;7.122;2024-03-08T08:26:38;100869.84;;;7.27;60.92
84055;BME280;74141;51.504;7.122;2024-03-08T08:29:03;100873.84;;;7.76;60.01
84055;BME280;74141;51.504;7.122;2024-03-08T08:31:29;100862.97;;;7.90;58.59
84055;BME280;74141;51.504;7.122;2024-03-08T08:33:56;100853.97;;;8.01;57.35
84055;BME280;74141;51.504;7.122;2024-03-08T08:36:24;100851.53;;;7.94;59.08
84055;BME280;74141;51.504;7.122;2024-03-08T08:38:49;100844.31;;;8.34;58.52
84055;BME280;74141;51.504;7.122;2024-03-08T08:41:15;100842.59;;;8.01;58.66
84055;BME280;74141;51.504;7.122;2024-03-08T08:43:42;100836.44;;;8.02;58.52
84055;BME280;74141;51.504;7.122;2024-03-08T08:46:10;100837.88;;;7.81;59.53
84055;BME280;74141;51.504;7.122;2024-03-08T08:48:38;100827.13;;;7.90;58.91
84055;BME280;74141;51.504;7.122;2024-03-08T08:51:03;100832.03;;;8.35;58.41
84055;BME280;74141;51.504;7.122;2024-03-08T08:53:31;100820.91;;;8.27;57.21
84055;BME280;74141;51.504;7.122;2024-03-08T08:55:56;100817.34;;;8.87;56.48
84055;BME280;74141;51.504;7.122;2024-03-08T08:58:22;100821.22;;;8.45;57.22
84055;BME280;74141;51.504;7.122;2024-03-08T09:00:47;100816.03;;;8.13;58.58
84055;BME280;74141;51.504;7.122;2024-03-08T09:03:12;100808.06;;;8.16;58.20
84055;BME280;74141;51.504;7.122;2024-03-08T09:05:38;100811.56;;;8.47;57.84
84055;BME280;74141;51.504;7.122;2024-03-08T09:08:03;100813.31;;;8.16;57.49
84055;BME280;74141;51.504;7.122;2024-03-08T09:10:28;100806.97;;;7.92;58.50
84055;BME280;74141;51.504;7.122;2024-03-08T09:12:54;100796.56;;;7.89;58.97
84055;BME280;74141;51.504;7.122;2024-03-08T09:15:19;100793.94;;;8.20;57.88
84055;BME280;74141;51.504;7.122;2024-03-08T09:17:46;100789.34;;;7.65;58.86
84055;BME280;74141;51.504;7.122;2024-03-08T09:20:11;100790.66;;;7.81;58.83
84055;BME280;74141;51.504;7.122;2024-03-08T09:22:46;100777.53;;;8.13;58.54
84055;BME280;74141;51.504;7.122;2024-03-08T09:25:11;100782.16;;;8.35;57.96
84055;BME280;74141;51.504;7.122;2024-03-08T09:27:37;100781.34;;;8.02;58.12
84055;BME280;74141;51.504;7.122;2024-03-08T09:30:03;100770.88;;;8.60;57.71
84055;BME280;74141;51.504;7.122;2024-03-08T09:32:31;100777.72;;;8.66;56.92
84055;BME280;74141;51.504;7.122;2024-03-08T09:34:57;100778.44;;;8.43;57.13
84055;BME280;74141;51.504;7.122;2024-03-08T09:37:22;100768.22;;;8.02;58.27
84055;BME280;74141;51.504;7.122;2024-03-08T09:39:48;100774.69;;;8.19;58.12
84055;BME280;74141;51.504;7.122;2024-03-08T09:42:13;100780.38;;;8.06;58.54
84055;BME280;74141;51.504;7.122;2024-03-08T09:44:46;100769.00;;;8.36;58.24
84055;BME280;74141;51.504;7.122;2024-03-08T09:47:15;100763.22;;;8.25;57.87
84055;BME280;74141;51.504;7.122;2024-03-08T09:49:41;100766.50;;;8.32;57.09
84055;BME280;74141;51.504;7.122;2024-03-08T09:52:07;100755.69;;;8.71;56.00
84055;BME280;74141;51.504;7.122;2024-03-08T09:54:32;100751.81;;;8.54;56.30
84055;BME280;74141;51.504;7.122;2024-03-08T09:56:58;100744.66;;;8.86;56.20
84055;BME280;74141;51.504;7.122;2024-03-08T09:59:24;100746.56;;;8.26;57.11
84055;BME280;74141;51.504;7.122;2024-03-08T10:01:52;100747.25;;;8.60;56.38
84055;BME280;74141;51.504;7.122;2024-03-08T10:04:17;100737.84;;;8.53;56.03
84055;BME280;74141;51.504;7.122;2024-03-08T10:06:43;100736.06;;;8.26;56.89
84055;BME280;74141;51.504;7.122;2024-03-08T10:09:09;100739.75;;;8.19;58.38
84055;BME280;74141;51.504;7.122;2024-03-08T10:11:35;100727.88;;;8.64;57.05
84055;BME280;74141;51.504;7.122;2024-03-08T10:14:01;100729.53;;;8.94;56.36
84055;BME280;74141;51.504;7.122;2024-03-08T10:16:27;100719.31;;;8.85;55.74
84055;BME280;74141;51.504;7.122;2024-03-08T10:18:52;100724.22;;;8.96;56.20
84055;BME280;74141;51.504;7.122;2024-03-08T10:21:19;100715.69;;;8.62;55.97
84055;BME280;74141;51.504;7.122;2024-03-08T10:23:44;100708.78;;;8.85;56.56
84055;BME280;74141;51.504;7.122;2024-03-08T10:28:36;100700.91;;;8.85;56.03
84055;BME280;74141;51.504;7.122;2024-03-08T10:31:02;100715.06;;;8.81;56.12
84055;BME280;74141;51.504;7.122;2024-03-08T10:33:27;100708.75;;;8.61;56.75
84055;BME280;74141;51.504;7.122;2024-03-08T10:35:53;100697.63;;;8.79;57.00
84055;BME280;74141;51.504;7.122;2024-03-08T10:38:20;100706.16;;;8.85;55.82
84055;BME280;74141;51.504;7.122;2024-03-08T10:40:46;100686.31;;;9.03;55.71
84055;BME280;74141;51.504;7.122;2024-03-08T10:43:23;100682.78;;;8.78;57.47
84055;BME280;74141;51.504;7.122;2024-03-08T10:45:54;100681.25;;;9.23;55.85
84055;BME280;74141;51.504;7.122;2024-03-08T10:48:32;100685.31;;;9.56;55.36
84055;BME280;74141;51.504;7.122;2024-03-08T10:50:59;100677.22;;;9.37;56.26
84055;BME280;74141;51.504;7.122;2024-03-08T10:53:27;100684.94;;;8.91;56.85
84055;BME280;74141;51.504;7.122;2024-03-08T10:55:53;100665.53;;;9.21;55.40
84055;BME280;74141;51.504;7.122;2024-03-08T10:58:21;100670.44;;;9.06;56.16
84055;BME280;74141;51.504;7.122;2024-03-08T11:00:47;100663.03;;;9.41;55.66
84055;BME280;74141;51.504;7.122;2024-03-08T11:06:08;100647.91;;;9.23;56.24
84055;BME280;74141;51.504;7.122;2024-03-08T11:08:39;100654.09;;;9.22;56.25
84055;BME280;74141;51.504;7.122;2024-03-08T11:11:04;100645.44;;;9.43;55.77
84055;BME280;74141;51.504;7.122;2024-03-08T11:16:00;100637.34;;;9.49;56.25
84055;BME280;74141;51.504;7.122;2024-03-08T11:18:26;100628.38;;;9.55;55.17
84055;BME280;74141;51.504;7.122;2024-03-08T11:20:54;100638.88;;;9.78;54.91
84055;BME280;74141;51.504;7.122;2024-03-08T11:23:22;100628.97;;;9.38;55.80
84055;BME280;74141;51.504;7.122;2024-03-08T11:25:48;100623.63;;;9.64;54.97
84055;BME280;74141;51.504;7.122;2024-03-08T11:28:22;100615.72;;;9.87;54.89
84055;BME280;74141;51.504;7.122;2024-03-08T11:33:24;100616.28;;;9.72;55.91
84055;BME280;74141;51.504;7.122;2024-03-08T11:35:50;100600.06;;;9.38;55.61
84055;BME280;74141;51.504;7.122;2024-03-08T11:38:16;100595.31;;;9.71;54.21
84055;BME280;74141;51.504;7.122;2024-03-08T11:40:42;100600.41;;;9.52;54.29
84055;BME280;74141;51.504;7.122;2024-03-08T11:43:08;100595.13;;;9.75;55.49
84055;BME280;74141;51.504;7.122;2024-03-08T11:45:36;100604.41;;;10.08;54.75
84055;BME280;74141;51.504;7.122;2024-03-08T11:48:04;100578.28;;;10.02;54.26
84055;BME280;74141;51.504;7.122;2024-03-08T11:50:30;100581.81;;;10.24;53.36
84055;BME280;74141;51.504;7.122;2024-03-08T11:53:04;100591.00;;;10.14;53.23
84055;BME280;74141;51.504;7.122;2024-03-08T11:55:30;100571.47;;;10.62;52.81
84055;BME280;74141;51.504;7.122;2024-03-08T11:58:04;100569.25;;;10.73;52.38
84055;BME280;74141;51.504;7.122;2024-03-08T12:00:30;100561.22;;;10.96;52.61
84055;BME280;74141;51.504;7.122;2024-03-08T12:03:05;100554.03;;;10.79;52.00
84055;BME280;74141;51.504;7.122;2024-03-08T12:05:31;100546.59;;;10.69;51.68
84055;BME280;74141;51.504;7.122;2024-03-08T12:07:58;100545.94;;;10.84;51.69
84055;BME280;74141;51.504;7.122;2024-03-08T12:10:24;100545.78;;;10.47;52.30
84055;BME280;74141;51.504;7.122;2024-03-08T12:12:54;100528.03;;;10.52;51.76
84055;BME280;74141;51.504;7.122;2024-03-08T12:15:23;100527.28;;;10.48;51.86
84055;BME280;74141;51.504;7.122;2024-03-08T12:17:50;100540.41;;;10.90;51.63
84055;BME280;74141;51.504;7.122;2024-03-08T12:20:18;100518.91;;;10.79;51.48
84055;BME280;74141;51.504;7.122;2024-03-08T12:22:44;100524.50;;;10.51;51.86
84055;BME280;74141;51.504;7.122;2024-03-08T12:25:12;100510.34;;;10.94;51.23
84055;BME280;74141;51.504;7.122;2024-03-08T12:27:42;100491.34;;;11.06;50.14
84055;BME280;74141;51.504;7.122;2024-03-08T12:30:18;100499.19;;;11.07;50.24
84055;BME280;74141;51.504;7.122;2024-03-08T12:32:48;100481.47;;;10.91;49.77
84055;BME280;74141;51.504;7.122;2024-03-08T12:35:13;100483.22;;;11.10;51.38
84055;BME280;74141;51.504;7.122;2024-03-08T12:37:39;100471.34;;;11.39;50.07
84055;BME280;74141;51.504;7.122;2024-03-08T12:40:07;100466.09;;;11.93;48.59
84055;BME280;74141;51.504;7.122;2024-03-08T12:42:33;100469.22;;;12.18;47.51
84055;BME280;74141;51.504;7.122;2024-03-08T12:44:59;100459.03;;;11.93;47.85
84055;BME280;74141;51.504;7.122;2024-03-08T12:47:24;100457.13;;;11.60;48.09
84055;BME280;74141;51.504;7.122;2024-03-08T12:49:53;100449.97;;;11.63;48.47
84055;BME280;74141;51.504;7.122;2024-03-08T12:52:19;100443.13;;;11.95;48.20
84055;BME280;74141;51.504;7.122;2024-03-08T12:54:44;100444.38;;;11.51;46.34
84055;BME280;74141;51.504;7.122;2024-03-08T12:57:09;100433.38;;;11.78;45.44
84055;BME280;74141;51.504;7.122;2024-03-08T12:59:35;100431.97;;;12.07;44.64
84055;BME280;74141;51.504;7.122;2024-03-08T13:02:00;100428.97;;;11.96;44.17
84055;BME280;74141;51.504;7.122;2024-03-08T13:04:25;100420.16;;;12.14;43.73